21h34 EDT


 

Suivi/Infos de l'aéroport


-ou-


 

Suivi des vols en temps réelHistory ✈ N830QS

Flight Activity History (N830QS)

JOURNAL DE L'ACTIVITE
Vous voulez une recherche complète sur l'historique de N830QS depuis 1998? Achetez maintenant. Recevez-le dans l'heure.
Date Avion Provenance Destination Départ Arrivée Durée
24-07-2014 C560/LHalliburton Field ()Santa Fe Muni () 11h40 CDT 11h44 MDT 1:04
24-07-2014 C560/LPhoenix-Mesa Gateway ()Halliburton Field () 06h54 MST 10h47 CDT 1:53
23-07-2014 C560/LInt'l Sky Harbor de Phoenix ()Phoenix-Mesa Gateway () 08h47 MST 09h05 MST 0:18
22-07-2014 C560/LInt'l de San Diego ()Int'l Sky Harbor de Phoenix () 12h20 PDT 13h16 MST 0:56
22-07-2014 C560/LBozeman Yellowstone Intl ()Int'l de San Diego () 09h12 MDT 10h50 PDT 2:38
21-07-2014 C560/LGlacier Park Intl ()Bozeman Yellowstone Intl () 16h53 MDT 17h39 MDT 0:46
21-07-2014 C560/LLake Tahoe ()Glacier Park Intl () 13h03 PDT 15h33 MDT 1:30
21-07-2014 C560/LInt'l de San Francisco ()Lake Tahoe () 09h32 PDT 10h08 PDT 0:35
20-07-2014 C560/LGrand Junction Regional ()Int'l de San Francisco () 16h03 MDT 16h49 PDT 1:45
20-07-2014 C560/LEagle County Rgnl ()Grand Junction Regional () 15h11 MDT 15h36 MDT 0:25
20-07-2014 C560/LBuchanan Field ()Eagle County Rgnl () 08h49 PDT 11h47 MDT 1:58
19-07-2014 C560/LBoeing-Comté de King ()Buchanan Field () 16h03 PDT 17h42 PDT 1:39
19-07-2014 C560/LInt'l de San Francisco ()Boeing-Comté de King () 11h19 PDT 12h58 PDT 1:39
19-07-2014 C560/LBoeing-Comté de King ()Int'l de San Francisco () 07h04 PDT 08h54 PDT 1:49
18-07-2014 C560/LInt'l McCarran ()Boeing-Comté de King () 16h55 PDT 19h19 PDT 2:23
18-07-2014 C560/LVan Nuys ()Int'l McCarran () 13h23 PDT 14h18 PDT 0:55
18-07-2014 C560/LInt'l McCarran ()Van Nuys () 11h22 PDT 12h08 PDT 0:46
17-07-2014 C560/LVicksburg Muni ()Int'l McCarran () 09h59 CDT 11h37 PDT 3:38
17-07-2014 C560/LDekalb-Peachtree ()Vicksburg Muni () 07h17 EDT 07h20 CDT 1:03
17-07-2014 C560/LInt'l Hartsfield-Jackson d'Atlanta ()Dekalb-Peachtree () 06h06 EDT 06h11 EDT 0:05
16-07-2014 C560/LPickens County ()Int'l Hartsfield-Jackson d'Atlanta () 10h54 EDT 11h21 EDT 0:27
16-07-2014 C560/LTeterboro ()Pickens County () 08h07 EDT 09h48 EDT 1:41
15-07-2014 C560/LInt'l Logan ()Teterboro () 15h20 EDT 16h10 EDT 0:49
15-07-2014 C560/LIndianapolis Executive ()Int'l Logan () 10h03 EDT 11h52 EDT 1:49
14-07-2014 C560/LRochester Intl ()Indianapolis Executive () 18h03 CDT 20h02 EDT 0:58
14-07-2014 C560/LInt'l O'Hare de Chicago ()Rochester Intl () 15h57 CDT 16h46 CDT 0:48
14-07-2014 C560Blue Grass ()Int'l O'Hare de Chicago () 13h01 EDT 12h43 CDT 0:42
14-07-2014 C560/LInt'l Thurgood Marshall de Baltimore-Washington ()Blue Grass () 09h02 EDT 10h16 EDT 1:14
13-07-2014 C560/LInt'l de Washington-Dulles ()Int'l Thurgood Marshall de Baltimore-Washington () 19h40 EDT 20h07 EDT 0:27
13-07-2014 C560/LLaconia Muni ()Int'l de Washington-Dulles () 16h58 EDT 18h25 EDT 1:27
13-07-2014 C560/LLaurence G Hanscom Fld ()Laconia Muni () 15h36 EDT 15h58 EDT 0:21
13-07-2014 C560/LShenandoah Valley Rgnl ()Laurence G Hanscom Fld () 13h04 EDT 14h22 EDT 1:18
12-07-2014 C560/LDekalb-Peachtree ()Shenandoah Valley Rgnl () 18h52 EDT 19h57 EDT 1:05
12-07-2014 C560/LInt'l de Philadelphie ()Dekalb-Peachtree () 11h47 EDT 13h18 EDT 1:30
11-07-2014 C560/LInt'l Pierre-Elliott-Trudeau de Montréal ()Int'l de Philadelphie () 16h23 EDT 17h35 EDT 1:12
11-07-2014 C560/LPort Columbus Intl ()Int'l Pierre-Elliott-Trudeau de Montréal () 13h07 EDT 14h37 EDT 1:30
11-07-2014 C560/LInt'l John-F.-Kennedy ()Port Columbus Intl () 08h07 EDT 09h20 EDT 1:13
10-07-2014 C560/LInt'l de Buffalo-Niagara ()Int'l John-F.-Kennedy () 17h01 EDT 18h00 EDT 0:58
10-07-2014 C560/LSalina Rgnl ()Int'l de Buffalo-Niagara () 12h25 CDT 15h48 EDT 2:22
10-07-2014 C560/LFlagstaff Pulliam ()Salina Rgnl () 07h56 MST 11h51 CDT 1:55
10-07-2014 C560/LPhoenix-Mesa Gateway ()Flagstaff Pulliam () 06h06 MST 06h33 MST 0:27
1998 - 2014Vous voulez une recherche complète sur l'historique de N830QS depuis 1998? Achetez maintenant. Recevez-le dans l'heure.
Les membres inscrits (l'inscription est gratuite et facile!) voient 4 months d'historique. S'inscrire